createdAt,value
2022-11-15T04:01:57.256Z,96992.94
2022-11-15T04:57:25.353Z,96974.34
2022-11-15T05:34:47.404Z,96923.00
2022-11-15T06:05:13.972Z,96917.81
2022-11-15T06:17:15.447Z,96912.72
2022-11-15T06:20:14.149Z,96917.81
2022-11-15T06:23:28.980Z,96910.72
2022-11-15T06:26:27.583Z,96914.38
2022-11-15T06:33:22.268Z,96899.34
2022-11-15T06:36:17.057Z,96921.28
2022-11-15T06:39:05.541Z,96900.63
2022-11-15T06:41:52.374Z,96912.03
2022-11-15T06:44:40.109Z,96922.06
2022-11-15T06:47:27.132Z,96926.69
2022-11-15T06:50:16.666Z,96930.59
2022-11-15T06:53:06.195Z,96941.28
2022-11-15T06:56:01.554Z,96945.13
2022-11-15T06:58:48.529Z,96944.63
2022-11-15T07:01:35.639Z,96948.91
2022-11-15T07:04:23.945Z,96942.81
2022-11-15T07:07:14.457Z,96953.03
2022-11-15T07:10:01.302Z,96956.50
2022-11-15T07:12:49.691Z,96953.88
2022-11-15T07:15:38.924Z,96939.88
2022-11-15T07:18:25.663Z,96935.41
2022-11-15T07:21:13.559Z,96930.75
2022-11-15T07:24:00.453Z,96938.34
2022-11-15T07:26:47.283Z,96939.34
2022-11-15T07:29:34.307Z,96929.25
2022-11-15T07:32:21.168Z,96931.56
2022-11-15T07:35:08.115Z,96922.84
2022-11-15T07:38:00.168Z,96919.88
2022-11-15T07:41:01.560Z,96928.28
2022-11-15T07:43:48.691Z,96929.72
2022-11-15T07:46:38.015Z,96922.94
2022-11-15T07:49:24.687Z,96929.41
2022-11-15T07:52:11.519Z,96918.84
2022-11-15T07:54:59.870Z,96926.41
2022-11-15T07:57:48.736Z,96917.69
2022-11-15T08:00:36.496Z,96914.22
2022-11-15T08:03:26.449Z,96926.91
2022-11-15T08:06:13.316Z,96914.72
2022-11-15T08:09:05.536Z,96923.16
2022-11-15T08:11:52.361Z,96919.88
2022-11-15T08:14:39.553Z,96913.22
2022-11-15T08:17:26.512Z,96904.97
2022-11-15T08:20:13.511Z,96920.00
2022-11-15T08:23:03.576Z,96913.91
2022-11-15T08:25:50.536Z,96904.38
2022-11-15T08:28:48.052Z,96903.53
2022-11-15T08:31:35.430Z,96912.63
2022-11-15T08:34:24.819Z,96913.44
2022-11-15T08:37:13.153Z,96901.72
2022-11-15T08:40:00.369Z,96905.00
2022-11-15T08:42:48.299Z,96901.94
2022-11-15T08:45:36.005Z,96904.41
2022-11-15T08:48:25.747Z,96902.47
2022-11-15T08:51:12.776Z,96898.00
2022-11-15T08:54:07.275Z,96897.00
2022-11-15T08:56:54.359Z,96904.63
2022-11-15T08:59:42.632Z,96892.44
2022-11-15T09:02:38.684Z,96887.16
2022-11-15T09:05:25.997Z,96891.28
2022-11-15T09:08:40.899Z,96883.53
2022-11-15T09:15:28.222Z,96873.31
2022-11-15T09:18:28.268Z,96866.94
2022-11-15T09:25:25.813Z,96840.91
2022-11-15T09:35:20.988Z,96858.34
2022-11-15T09:38:25.893Z,96847.78
2022-11-15T09:42:05.923Z,96843.84
2022-11-15T09:53:17.724Z,96823.63
2022-11-15T10:16:01.715Z,96812.63
2022-11-15T10:26:34.991Z,96787.72
2022-11-15T10:30:18.718Z,96773.53
2022-11-15T11:07:48.367Z,96690.72
2022-11-15T11:11:43.075Z,96692.16
2022-11-15T11:23:33.266Z,96690.56
2022-11-15T12:06:44.232Z,96609.56
2022-11-15T12:14:09.992Z,96591.63
2022-11-15T12:22:07.694Z,96599.88
2022-11-15T12:46:12.639Z,96549.53
2022-11-15T12:49:16.042Z,96564.75
2022-11-15T12:52:18.789Z,96543.22
2022-11-15T12:56:26.060Z,96549.34
2022-11-15T13:00:10.033Z,96527.56
2022-11-15T13:03:26.734Z,96549.78
2022-11-15T13:10:26.595Z,96527.00
2022-11-15T13:17:32.877Z,96538.53
2022-11-15T13:20:35.381Z,96529.75
2022-11-15T13:23:33.067Z,96527.75
2022-11-15T13:26:38.907Z,96520.03
2022-11-15T13:29:56.010Z,96523.09
2022-11-15T13:37:22.026Z,96530.91
2022-11-15T13:40:58.209Z,96522.31
2022-11-15T13:51:38.195Z,96512.53
2022-11-15T13:58:24.336Z,96504.13
2022-11-15T14:02:02.849Z,96503.50
2022-11-15T14:05:33.346Z,96493.28
2022-11-15T14:08:51.667Z,96502.09
2022-11-15T14:23:20.704Z,96477.34
2022-11-15T14:26:28.615Z,96478.16
2022-11-15T14:29:29.656Z,96471.00
2022-11-15T14:32:22.186Z,96473.88
2022-11-15T14:35:19.716Z,96466.72
2022-11-15T14:38:14.196Z,96453.22
2022-11-15T14:41:03.880Z,96451.38
2022-11-15T14:44:14.689Z,96455.25
2022-11-15T14:47:13.609Z,96446.47
2022-11-15T14:50:00.718Z,96448.31
2022-11-15T14:52:56.022Z,96438.28
2022-11-15T14:56:00.230Z,96439.09
2022-11-15T14:58:47.195Z,96419.25
2022-11-15T15:01:36.476Z,96424.97
2022-11-15T15:04:25.459Z,96424.13
2022-11-15T15:07:20.771Z,96401.22
2022-11-15T15:13:24.911Z,96409.81
2022-11-15T15:16:16.547Z,96418.41
2022-11-15T15:19:03.551Z,96402.66
2022-11-15T15:21:53.600Z,96418.22
2022-11-15T15:24:43.018Z,96402.88
2022-11-15T15:27:33.197Z,96410.63
2022-11-15T15:30:20.105Z,96404.91
2022-11-15T15:33:22.582Z,96398.59
2022-11-15T15:36:13.630Z,96409.81
2022-11-15T15:39:00.785Z,96403.28
2022-11-15T15:41:57.271Z,96395.69
2022-11-15T15:49:05.222Z,96400.81
2022-11-15T15:52:00.982Z,96408.78
2022-11-15T15:55:02.704Z,96402.38
2022-11-15T15:57:50.217Z,96384.59
2022-11-15T16:00:40.092Z,96396.25
2022-11-15T16:03:28.534Z,96395.41
2022-11-15T16:06:39.800Z,96402.75
2022-11-15T16:09:45.523Z,96403.75
2022-11-15T16:12:58.333Z,96403.34
2022-11-15T16:15:56.477Z,96386.16
2022-11-15T16:19:01.738Z,96386.94
2022-11-15T16:25:21.189Z,96395.72
2022-11-15T16:28:20.998Z,96389.16
2022-11-15T16:31:55.307Z,96395.09
2022-11-15T16:34:59.392Z,96397.09
2022-11-15T16:37:59.057Z,96406.91
2022-11-15T16:41:23.341Z,96395.66
2022-11-15T16:44:21.946Z,96397.69
2022-11-15T16:47:38.922Z,96403.19
2022-11-15T16:50:29.768Z,96396.00
2022-11-15T16:53:32.140Z,96393.56
2022-11-15T17:04:50.456Z,96406.59
2022-11-15T17:18:42.488Z,96400.38
2022-11-15T17:25:09.285Z,96408.13
2022-11-15T17:40:16.202Z,96385.22
2022-11-15T18:05:13.963Z,96388.31
2022-11-15T22:46:46.145Z,96173.19
2022-11-15T23:50:06.340Z,96106.69
2022-11-15T23:53:00.858Z,96108.69
2022-11-15T23:56:08.477Z,96108.69
2022-11-15T23:58:55.679Z,96092.59
